sensor_id;sensor_type;location;lat;lon;timestamp;P1;durP1;ratioP1;P2;durP2;ratioP2
35530;SDS011;21637;53.352;-6.356;2023-03-19T00:01:56;18.23;;;5.32;;
35530;SDS011;21637;53.352;-6.356;2023-03-19T00:04:23;19.58;;;3.83;;
35530;SDS011;21637;53.352;-6.356;2023-03-19T00:06:50;15.52;;;4.43;;
35530;SDS011;21637;53.352;-6.356;2023-03-19T00:09:16;12.05;;;4.15;;
35530;SDS011;21637;53.352;-6.356;2023-03-19T00:11:43;16.73;;;3.92;;
35530;SDS011;21637;53.352;-6.356;2023-03-19T00:14:09;14.85;;;4.55;;
35530;SDS011;21637;53.352;-6.356;2023-03-19T00:16:35;23.80;;;5.28;;
35530;SDS011;21637;53.352;-6.356;2023-03-19T00:19:01;15.07;;;5.05;;
35530;SDS011;21637;53.352;-6.356;2023-03-19T00:21:28;17.20;;;5.00;;
35530;SDS011;21637;53.352;-6.356;2023-03-19T00:23:55;20.92;;;5.22;;
35530;SDS011;21637;53.352;-6.356;2023-03-19T00:26:25;24.30;;;4.65;;
35530;SDS011;21637;53.352;-6.356;2023-03-19T00:28:55;19.48;;;4.75;;
35530;SDS011;21637;53.352;-6.356;2023-03-19T00:31:21;17.02;;;4.57;;
35530;SDS011;21637;53.352;-6.356;2023-03-19T00:33:48;18.90;;;5.07;;
35530;SDS011;21637;53.352;-6.356;2023-03-19T00:36:14;15.32;;;4.50;;
35530;SDS011;21637;53.352;-6.356;2023-03-19T00:38:43;13.90;;;4.45;;
35530;SDS011;21637;53.352;-6.356;2023-03-19T00:41:10;12.75;;;4.43;;
35530;SDS011;21637;53.352;-6.356;2023-03-19T00:43:36;19.58;;;5.07;;
35530;SDS011;21637;53.352;-6.356;2023-03-19T00:46:03;17.38;;;4.03;;
35530;SDS011;21637;53.352;-6.356;2023-03-19T00:48:29;18.13;;;4.28;;
35530;SDS011;21637;53.352;-6.356;2023-03-19T00:50:54;19.55;;;4.30;;
35530;SDS011;21637;53.352;-6.356;2023-03-19T00:53:25;19.08;;;4.88;;
35530;SDS011;21637;53.352;-6.356;2023-03-19T00:55:51;16.55;;;4.38;;
35530;SDS011;21637;53.352;-6.356;2023-03-19T00:58:17;13.90;;;3.60;;
35530;SDS011;21637;53.352;-6.356;2023-03-19T01:00:42;17.75;;;4.70;;
35530;SDS011;21637;53.352;-6.356;2023-03-19T01:03:09;18.33;;;4.45;;
35530;SDS011;21637;53.352;-6.356;2023-03-19T01:05:35;19.98;;;4.63;;
35530;SDS011;21637;53.352;-6.356;2023-03-19T01:08:00;18.98;;;4.78;;
35530;SDS011;21637;53.352;-6.356;2023-03-19T01:10:26;15.73;;;4.95;;
35530;SDS011;21637;53.352;-6.356;2023-03-19T01:12:52;16.13;;;3.85;;
35530;SDS011;21637;53.352;-6.356;2023-03-19T01:15:18;13.68;;;4.38;;
35530;SDS011;21637;53.352;-6.356;2023-03-19T01:17:44;17.30;;;4.28;;
35530;SDS011;21637;53.352;-6.356;2023-03-19T01:20:10;23.92;;;5.18;;
35530;SDS011;21637;53.352;-6.356;2023-03-19T01:22:43;13.77;;;4.70;;
35530;SDS011;21637;53.352;-6.356;2023-03-19T01:25:10;10.90;;;3.70;;
35530;SDS011;21637;53.352;-6.356;2023-03-19T01:27:37;21.40;;;4.68;;
35530;SDS011;21637;53.352;-6.356;2023-03-19T01:30:04;17.02;;;4.65;;
35530;SDS011;21637;53.352;-6.356;2023-03-19T01:32:31;19.60;;;4.40;;
35530;SDS011;21637;53.352;-6.356;2023-03-19T01:34:57;16.77;;;4.22;;
35530;SDS011;21637;53.352;-6.356;2023-03-19T01:37:23;20.42;;;4.57;;
35530;SDS011;21637;53.352;-6.356;2023-03-19T01:39:49;16.92;;;4.25;;
35530;SDS011;21637;53.352;-6.356;2023-03-19T01:42:14;17.52;;;4.05;;
35530;SDS011;21637;53.352;-6.356;2023-03-19T01:44:41;20.10;;;4.43;;
35530;SDS011;21637;53.352;-6.356;2023-03-19T01:47:16;14.15;;;4.68;;
35530;SDS011;21637;53.352;-6.356;2023-03-19T01:49:50;15.93;;;4.82;;
35530;SDS011;21637;53.352;-6.356;2023-03-19T01:52:18;20.35;;;4.53;;
35530;SDS011;21637;53.352;-6.356;2023-03-19T01:54:45;21.45;;;3.83;;
35530;SDS011;21637;53.352;-6.356;2023-03-19T01:57:12;15.52;;;3.40;;
35530;SDS011;21637;53.352;-6.356;2023-03-19T01:59:49;14.55;;;4.15;;
35530;SDS011;21637;53.352;-6.356;2023-03-19T02:05:00;22.20;;;4.40;;
35530;SDS011;21637;53.352;-6.356;2023-03-19T02:07:33;14.40;;;3.90;;
35530;SDS011;21637;53.352;-6.356;2023-03-19T02:10:02;17.58;;;3.42;;
35530;SDS011;21637;53.352;-6.356;2023-03-19T02:12:31;17.65;;;3.65;;
35530;SDS011;21637;53.352;-6.356;2023-03-19T02:14:57;14.77;;;3.20;;
35530;SDS011;21637;53.352;-6.356;2023-03-19T02:17:23;19.90;;;4.68;;
35530;SDS011;21637;53.352;-6.356;2023-03-19T02:20:23;13.13;;;3.72;;
35530;SDS011;21637;53.352;-6.356;2023-03-19T02:28:22;9.90;;;3.72;;
35530;SDS011;21637;53.352;-6.356;2023-03-19T02:30:48;13.52;;;3.42;;
35530;SDS011;21637;53.352;-6.356;2023-03-19T02:33:15;15.95;;;3.72;;
35530;SDS011;21637;53.352;-6.356;2023-03-19T02:35:43;11.32;;;3.25;;
35530;SDS011;21637;53.352;-6.356;2023-03-19T02:38:11;17.80;;;3.90;;
35530;SDS011;21637;53.352;-6.356;2023-03-19T02:40:40;19.33;;;3.58;;
35530;SDS011;21637;53.352;-6.356;2023-03-19T02:43:11;18.80;;;3.65;;
35530;SDS011;21637;53.352;-6.356;2023-03-19T02:45:37;11.07;;;3.65;;
35530;SDS011;21637;53.352;-6.356;2023-03-19T02:48:03;18.92;;;3.88;;
35530;SDS011;21637;53.352;-6.356;2023-03-19T02:50:29;14.32;;;4.15;;
35530;SDS011;21637;53.352;-6.356;2023-03-19T02:52:55;12.57;;;3.38;;
35530;SDS011;21637;53.352;-6.356;2023-03-19T02:55:21;10.52;;;3.33;;
35530;SDS011;21637;53.352;-6.356;2023-03-19T02:57:46;9.80;;;3.10;;
35530;SDS011;21637;53.352;-6.356;2023-03-19T03:00:12;15.52;;;3.45;;
35530;SDS011;21637;53.352;-6.356;2023-03-19T03:02:41;16.20;;;3.22;;
35530;SDS011;21637;53.352;-6.356;2023-03-19T03:05:07;12.38;;;3.10;;
35530;SDS011;21637;53.352;-6.356;2023-03-19T03:07:34;23.05;;;4.10;;
35530;SDS011;21637;53.352;-6.356;2023-03-19T03:10:00;18.30;;;3.05;;
35530;SDS011;21637;53.352;-6.356;2023-03-19T03:12:26;14.23;;;3.67;;
35530;SDS011;21637;53.352;-6.356;2023-03-19T03:14:51;16.38;;;3.17;;
35530;SDS011;21637;53.352;-6.356;2023-03-19T03:17:17;11.32;;;3.05;;
35530;SDS011;21637;53.352;-6.356;2023-03-19T03:19:43;10.90;;;3.15;;
35530;SDS011;21637;53.352;-6.356;2023-03-19T03:22:08;12.88;;;2.72;;
35530;SDS011;21637;53.352;-6.356;2023-03-19T03:24:34;17.45;;;3.38;;
35530;SDS011;21637;53.352;-6.356;2023-03-19T03:27:00;16.80;;;3.67;;
35530;SDS011;21637;53.352;-6.356;2023-03-19T03:29:26;12.70;;;3.30;;
35530;SDS011;21637;53.352;-6.356;2023-03-19T03:31:52;10.60;;;3.83;;
35530;SDS011;21637;53.352;-6.356;2023-03-19T03:34:18;12.40;;;3.10;;
35530;SDS011;21637;53.352;-6.356;2023-03-19T03:36:43;14.88;;;3.20;;
35530;SDS011;21637;53.352;-6.356;2023-03-19T03:39:11;14.73;;;3.67;;
35530;SDS011;21637;53.352;-6.356;2023-03-19T03:41:37;15.27;;;2.90;;
35530;SDS011;21637;53.352;-6.356;2023-03-19T03:44:03;14.05;;;3.40;;
35530;SDS011;21637;53.352;-6.356;2023-03-19T03:46:29;11.10;;;3.13;;
35530;SDS011;21637;53.352;-6.356;2023-03-19T03:48:55;13.93;;;2.90;;
35530;SDS011;21637;53.352;-6.356;2023-03-19T03:51:21;9.75;;;3.25;;
35530;SDS011;21637;53.352;-6.356;2023-03-19T03:53:47;9.82;;;3.35;;
35530;SDS011;21637;53.352;-6.356;2023-03-19T03:56:12;12.40;;;3.70;;
35530;SDS011;21637;53.352;-6.356;2023-03-19T03:58:38;14.93;;;3.65;;
35530;SDS011;21637;53.352;-6.356;2023-03-19T04:01:04;12.10;;;3.53;;
35530;SDS011;21637;53.352;-6.356;2023-03-19T04:03:31;11.80;;;3.00;;
35530;SDS011;21637;53.352;-6.356;2023-03-19T04:05:57;8.20;;;2.42;;
35530;SDS011;21637;53.352;-6.356;2023-03-19T04:08:23;14.27;;;2.90;;
35530;SDS011;21637;53.352;-6.356;2023-03-19T04:10:49;11.55;;;3.60;;
35530;SDS011;21637;53.352;-6.356;2023-03-19T04:13:15;15.30;;;2.55;;
35530;SDS011;21637;53.352;-6.356;2023-03-19T04:15:41;12.63;;;3.17;;
35530;SDS011;21637;53.352;-6.356;2023-03-19T04:18:07;14.55;;;3.65;;
35530;SDS011;21637;53.352;-6.356;2023-03-19T04:20:33;15.77;;;3.08;;
35530;SDS011;21637;53.352;-6.356;2023-03-19T04:22:59;15.70;;;3.28;;
35530;SDS011;21637;53.352;-6.356;2023-03-19T04:25:26;15.73;;;3.00;;
35530;SDS011;21637;53.352;-6.356;2023-03-19T04:27:52;10.70;;;2.97;;
35530;SDS011;21637;53.352;-6.356;2023-03-19T04:30:17;14.80;;;3.42;;
35530;SDS011;21637;53.352;-6.356;2023-03-19T04:32:44;11.68;;;2.88;;
35530;SDS011;21637;53.352;-6.356;2023-03-19T04:35:10;19.70;;;3.63;;
35530;SDS011;21637;53.352;-6.356;2023-03-19T04:37:36;16.42;;;2.97;;
35530;SDS011;21637;53.352;-6.356;2023-03-19T04:40:02;14.63;;;3.38;;
35530;SDS011;21637;53.352;-6.356;2023-03-19T04:42:28;14.90;;;4.13;;
35530;SDS011;21637;53.352;-6.356;2023-03-19T04:44:54;13.10;;;3.22;;
35530;SDS011;21637;53.352;-6.356;2023-03-19T04:47:20;16.20;;;3.38;;
35530;SDS011;21637;53.352;-6.356;2023-03-19T04:49:45;13.77;;;3.03;;
35530;SDS011;21637;53.352;-6.356;2023-03-19T04:52:11;15.35;;;3.40;;
35530;SDS011;21637;53.352;-6.356;2023-03-19T04:54:37;12.10;;;2.72;;
35530;SDS011;21637;53.352;-6.356;2023-03-19T04:57:03;8.23;;;3.08;;
35530;SDS011;21637;53.352;-6.356;2023-03-19T04:59:29;18.67;;;3.10;;
35530;SDS011;21637;53.352;-6.356;2023-03-19T05:01:55;8.98;;;2.70;;
35530;SDS011;21637;53.352;-6.356;2023-03-19T05:04:21;12.95;;;3.22;;
35530;SDS011;21637;53.352;-6.356;2023-03-19T05:06:48;11.40;;;3.40;;
35530;SDS011;21637;53.352;-6.356;2023-03-19T05:09:14;13.95;;;3.20;;
35530;SDS011;21637;53.352;-6.356;2023-03-19T05:11:40;15.85;;;3.25;;
35530;SDS011;21637;53.352;-6.356;2023-03-19T05:14:06;12.25;;;2.55;;
35530;SDS011;21637;53.352;-6.356;2023-03-19T05:16:32;16.42;;;3.25;;
35530;SDS011;21637;53.352;-6.356;2023-03-19T05:18:59;16.10;;;3.38;;
35530;SDS011;21637;53.352;-6.356;2023-03-19T05:21:25;10.55;;;3.15;;
35530;SDS011;21637;53.352;-6.356;2023-03-19T05:23:51;18.48;;;3.55;;
35530;SDS011;21637;53.352;-6.356;2023-03-19T05:26:18;13.85;;;3.25;;
35530;SDS011;21637;53.352;-6.356;2023-03-19T05:28:45;12.77;;;3.40;;
35530;SDS011;21637;53.352;-6.356;2023-03-19T05:31:11;12.30;;;3.10;;
35530;SDS011;21637;53.352;-6.356;2023-03-19T05:33:36;12.35;;;3.30;;
35530;SDS011;21637;53.352;-6.356;2023-03-19T05:36:02;9.65;;;3.38;;
35530;SDS011;21637;53.352;-6.356;2023-03-19T05:38:28;11.27;;;2.90;;
35530;SDS011;21637;53.352;-6.356;2023-03-19T05:40:54;12.90;;;2.58;;
35530;SDS011;21637;53.352;-6.356;2023-03-19T05:43:20;16.77;;;3.28;;
35530;SDS011;21637;53.352;-6.356;2023-03-19T05:45:49;11.73;;;2.78;;
35530;SDS011;21637;53.352;-6.356;2023-03-19T05:50:45;13.10;;;3.00;;
35530;SDS011;21637;53.352;-6.356;2023-03-19T05:53:11;13.18;;;2.88;;
35530;SDS011;21637;53.352;-6.356;2023-03-19T05:55:37;12.68;;;2.78;;
35530;SDS011;21637;53.352;-6.356;2023-03-19T05:58:02;12.90;;;3.08;;
35530;SDS011;21637;53.352;-6.356;2023-03-19T06:00:28;13.90;;;3.00;;
35530;SDS011;21637;53.352;-6.356;2023-03-19T06:02:54;12.20;;;2.92;;
35530;SDS011;21637;53.352;-6.356;2023-03-19T06:05:20;15.35;;;3.53;;
35530;SDS011;21637;53.352;-6.356;2023-03-19T06:07:46;11.43;;;3.63;;
35530;SDS011;21637;53.352;-6.356;2023-03-19T06:10:11;14.95;;;2.80;;
35530;SDS011;21637;53.352;-6.356;2023-03-19T06:12:37;13.88;;;2.95;;
35530;SDS011;21637;53.352;-6.356;2023-03-19T06:15:03;9.65;;;2.95;;
35530;SDS011;21637;53.352;-6.356;2023-03-19T06:17:29;12.10;;;3.05;;
35530;SDS011;21637;53.352;-6.356;2023-03-19T06:19:55;12.07;;;2.75;;
35530;SDS011;21637;53.352;-6.356;2023-03-19T06:22:21;12.43;;;3.05;;
35530;SDS011;21637;53.352;-6.356;2023-03-19T06:24:46;14.63;;;3.92;;
35530;SDS011;21637;53.352;-6.356;2023-03-19T06:27:12;15.18;;;3.25;;
35530;SDS011;21637;53.352;-6.356;2023-03-19T06:29:38;12.65;;;3.00;;
35530;SDS011;21637;53.352;-6.356;2023-03-19T06:32:04;13.40;;;3.33;;
35530;SDS011;21637;53.352;-6.356;2023-03-19T06:34:29;12.10;;;2.80;;
35530;SDS011;21637;53.352;-6.356;2023-03-19T06:36:55;13.50;;;3.08;;
35530;SDS011;21637;53.352;-6.356;2023-03-19T06:39:21;11.30;;;3.28;;
35530;SDS011;21637;53.352;-6.356;2023-03-19T06:41:47;10.90;;;3.03;;
35530;SDS011;21637;53.352;-6.356;2023-03-19T06:44:12;12.20;;;2.63;;
35530;SDS011;21637;53.352;-6.356;2023-03-19T06:46:38;14.02;;;3.08;;
35530;SDS011;21637;53.352;-6.356;2023-03-19T06:49:04;16.58;;;3.55;;
35530;SDS011;21637;53.352;-6.356;2023-03-19T06:51:30;13.32;;;2.60;;
35530;SDS011;21637;53.352;-6.356;2023-03-19T06:53:56;13.30;;;2.58;;
35530;SDS011;21637;53.352;-6.356;2023-03-19T06:56:22;15.75;;;2.85;;
35530;SDS011;21637;53.352;-6.356;2023-03-19T06:58:47;10.55;;;2.78;;
35530;SDS011;21637;53.352;-6.356;2023-03-19T07:01:13;10.98;;;2.90;;
35530;SDS011;21637;53.352;-6.356;2023-03-19T07:03:40;13.35;;;2.28;;
35530;SDS011;21637;53.352;-6.356;2023-03-19T07:06:06;7.38;;;2.60;;
35530;SDS011;21637;53.352;-6.356;2023-03-19T07:08:31;10.40;;;2.42;;
35530;SDS011;21637;53.352;-6.356;2023-03-19T07:11:04;10.00;;;1.95;;
35530;SDS011;21637;53.352;-6.356;2023-03-19T07:13:31;8.70;;;2.50;;
35530;SDS011;21637;53.352;-6.356;2023-03-19T07:15:57;11.02;;;2.63;;
35530;SDS011;21637;53.352;-6.356;2023-03-19T07:18:24;12.93;;;2.42;;
35530;SDS011;21637;53.352;-6.356;2023-03-19T07:20:50;12.57;;;3.08;;
35530;SDS011;21637;53.352;-6.356;2023-03-19T07:23:17;14.30;;;2.78;;
35530;SDS011;21637;53.352;-6.356;2023-03-19T07:25:43;9.82;;;2.08;;
35530;SDS011;21637;53.352;-6.356;2023-03-19T07:28:09;9.27;;;2.30;;
35530;SDS011;21637;53.352;-6.356;2023-03-19T07:30:35;6.07;;;1.85;;
35530;SDS011;21637;53.352;-6.356;2023-03-19T07:33:02;13.45;;;2.92;;
35530;SDS011;21637;53.352;-6.356;2023-03-19T07:35:28;13.27;;;3.50;;
35530;SDS011;21637;53.352;-6.356;2023-03-19T07:37:54;13.40;;;2.72;;
35530;SDS011;21637;53.352;-6.356;2023-03-19T07:40:20;14.50;;;2.55;;
35530;SDS011;21637;53.352;-6.356;2023-03-19T07:42:45;9.93;;;3.22;;
35530;SDS011;21637;53.352;-6.356;2023-03-19T07:45:11;14.27;;;2.33;;
35530;SDS011;21637;53.352;-6.356;2023-03-19T07:47:37;11.90;;;2.97;;
35530;SDS011;21637;53.352;-6.356;2023-03-19T07:50:04;8.20;;;2.58;;
35530;SDS011;21637;53.352;-6.356;2023-03-19T07:52:30;10.18;;;2.58;;
35530;SDS011;21637;53.352;-6.356;2023-03-19T07:54:56;12.85;;;2.47;;
35530;SDS011;21637;53.352;-6.356;2023-03-19T07:57:21;17.40;;;2.83;;
35530;SDS011;21637;53.352;-6.356;2023-03-19T07:59:49;8.45;;;2.13;;
35530;SDS011;21637;53.352;-6.356;2023-03-19T08:02:15;12.60;;;2.75;;
35530;SDS011;21637;53.352;-6.356;2023-03-19T08:04:41;10.32;;;3.17;;
35530;SDS011;21637;53.352;-6.356;2023-03-19T08:07:07;16.13;;;2.50;;
35530;SDS011;21637;53.352;-6.356;2023-03-19T08:09:36;10.98;;;2.47;;
35530;SDS011;21637;53.352;-6.356;2023-03-19T08:12:04;10.32;;;2.45;;
35530;SDS011;21637;53.352;-6.356;2023-03-19T08:14:31;15.43;;;2.63;;
35530;SDS011;21637;53.352;-6.356;2023-03-19T08:16:57;12.75;;;3.25;;
35530;SDS011;21637;53.352;-6.356;2023-03-19T08:19:23;10.80;;;2.53;;
35530;SDS011;21637;53.352;-6.356;2023-03-19T08:21:49;6.97;;;2.05;;
35530;SDS011;21637;53.352;-6.356;2023-03-19T08:24:15;11.55;;;2.47;;
35530;SDS011;21637;53.352;-6.356;2023-03-19T08:26:41;7.15;;;2.22;;
35530;SDS011;21637;53.352;-6.356;2023-03-19T08:29:07;8.07;;;2.60;;
35530;SDS011;21637;53.352;-6.356;2023-03-19T08:31:33;10.18;;;2.10;;
35530;SDS011;21637;53.352;-6.356;2023-03-19T08:34:00;12.90;;;2.13;;
35530;SDS011;21637;53.352;-6.356;2023-03-19T08:36:28;7.43;;;2.85;;
35530;SDS011;21637;53.352;-6.356;2023-03-19T08:38:53;16.98;;;2.38;;
35530;SDS011;21637;53.352;-6.356;2023-03-19T08:41:20;11.40;;;2.65;;
35530;SDS011;21637;53.352;-6.356;2023-03-19T08:43:46;13.68;;;2.33;;
35530;SDS011;21637;53.352;-6.356;2023-03-19T08:46:12;9.73;;;1.85;;
35530;SDS011;21637;53.352;-6.356;2023-03-19T08:48:38;10.30;;;2.30;;
35530;SDS011;21637;53.352;-6.356;2023-03-19T08:51:03;10.40;;;2.08;;
35530;SDS011;21637;53.352;-6.356;2023-03-19T08:53:30;10.52;;;2.88;;
35530;SDS011;21637;53.352;-6.356;2023-03-19T08:55:58;10.90;;;2.53;;
35530;SDS011;21637;53.352;-6.356;2023-03-19T08:58:25;12.05;;;2.63;;
35530;SDS011;21637;53.352;-6.356;2023-03-19T09:00:52;11.20;;;2.30;;
35530;SDS011;21637;53.352;-6.356;2023-03-19T09:03:25;11.05;;;2.22;;
35530;SDS011;21637;53.352;-6.356;2023-03-19T09:05:51;11.38;;;2.42;;
35530;SDS011;21637;53.352;-6.356;2023-03-19T09:08:17;14.85;;;2.67;;
35530;SDS011;21637;53.352;-6.356;2023-03-19T09:10:42;9.38;;;1.73;;
35530;SDS011;21637;53.352;-6.356;2023-03-19T09:13:08;11.48;;;2.08;;
35530;SDS011;21637;53.352;-6.356;2023-03-19T09:15:34;10.20;;;1.55;;
35530;SDS011;21637;53.352;-6.356;2023-03-19T09:18:00;12.20;;;2.00;;
35530;SDS011;21637;53.352;-6.356;2023-03-19T09:20:25;10.13;;;2.22;;
35530;SDS011;21637;53.352;-6.356;2023-03-19T09:22:51;10.32;;;2.17;;
35530;SDS011;21637;53.352;-6.356;2023-03-19T09:25:17;7.85;;;1.63;;
35530;SDS011;21637;53.352;-6.356;2023-03-19T09:27:42;10.38;;;2.25;;
35530;SDS011;21637;53.352;-6.356;2023-03-19T09:30:08;10.10;;;1.80;;
35530;SDS011;21637;53.352;-6.356;2023-03-19T09:32:35;13.88;;;2.13;;
35530;SDS011;21637;53.352;-6.356;2023-03-19T09:35:01;10.32;;;1.77;;
35530;SDS011;21637;53.352;-6.356;2023-03-19T09:37:27;9.70;;;2.08;;
35530;SDS011;21637;53.352;-6.356;2023-03-19T09:39:52;6.00;;;2.55;;
35530;SDS011;21637;53.352;-6.356;2023-03-19T09:44:54;12.30;;;2.22;;
35530;SDS011;21637;53.352;-6.356;2023-03-19T09:49:56;12.57;;;1.98;;
35530;SDS011;21637;53.352;-6.356;2023-03-19T09:54:51;10.13;;;2.30;;
35530;SDS011;21637;53.352;-6.356;2023-03-19T09:57:21;7.72;;;2.20;;
35530;SDS011;21637;53.352;-6.356;2023-03-19T09:59:47;8.82;;;1.85;;
35530;SDS011;21637;53.352;-6.356;2023-03-19T10:08:02;6.22;;;1.73;;
35530;SDS011;21637;53.352;-6.356;2023-03-19T10:16:04;10.48;;;2.03;;
35530;SDS011;21637;53.352;-6.356;2023-03-19T10:21:08;3.67;;;1.40;;
35530;SDS011;21637;53.352;-6.356;2023-03-19T10:27:00;7.22;;;2.30;;
35530;SDS011;21637;53.352;-6.356;2023-03-19T10:29:29;7.78;;;1.83;;
35530;SDS011;21637;53.352;-6.356;2023-03-19T10:32:02;12.65;;;2.30;;
35530;SDS011;21637;53.352;-6.356;2023-03-19T10:34:35;9.70;;;1.70;;
35530;SDS011;21637;53.352;-6.356;2023-03-19T10:37:17;10.95;;;2.40;;
35530;SDS011;21637;53.352;-6.356;2023-03-19T10:39:46;7.45;;;2.50;;
35530;SDS011;21637;53.352;-6.356;2023-03-19T10:47:52;8.02;;;2.30;;
35530;SDS011;21637;53.352;-6.356;2023-03-19T10:50:43;9.38;;;2.00;;
35530;SDS011;21637;53.352;-6.356;2023-03-19T10:55:50;7.90;;;1.83;;
35530;SDS011;21637;53.352;-6.356;2023-03-19T10:58:21;9.77;;;2.05;;
35530;SDS011;21637;53.352;-6.356;2023-03-19T11:00:54;7.75;;;2.03;;
35530;SDS011;21637;53.352;-6.356;2023-03-19T11:08:56;9.10;;;1.88;;
35530;SDS011;21637;53.352;-6.356;2023-03-19T11:11:42;11.27;;;2.08;;
35530;SDS011;21637;53.352;-6.356;2023-03-19T11:14:18;8.35;;;1.70;;
35530;SDS011;21637;53.352;-6.356;2023-03-19T11:19:32;11.18;;;2.00;;
35530;SDS011;21637;53.352;-6.356;2023-03-19T11:24:40;7.93;;;2.25;;
35530;SDS011;21637;53.352;-6.356;2023-03-19T11:27:07;7.60;;;2.20;;
35530;SDS011;21637;53.352;-6.356;2023-03-19T11:29:36;8.95;;;1.58;;
35530;SDS011;21637;53.352;-6.356;2023-03-19T11:32:16;5.47;;;1.50;;
35530;SDS011;21637;53.352;-6.356;2023-03-19T11:35:13;7.78;;;1.38;;
35530;SDS011;21637;53.352;-6.356;2023-03-19T11:38:00;8.13;;;1.60;;
35530;SDS011;21637;53.352;-6.356;2023-03-19T11:40:37;9.95;;;1.73;;
35530;SDS011;21637;53.352;-6.356;2023-03-19T11:48:47;8.20;;;1.95;;
35530;SDS011;21637;53.352;-6.356;2023-03-19T11:56:52;8.00;;;1.70;;
35530;SDS011;21637;53.352;-6.356;2023-03-19T12:07:32;44.10;;;7.85;;
35530;SDS011;21637;53.352;-6.356;2023-03-19T12:13:25;6.85;;;1.90;;
35530;SDS011;21637;53.352;-6.356;2023-03-19T12:35:28;7.30;;;2.00;;
35530;SDS011;21637;53.352;-6.356;2023-03-19T12:40:30;7.82;;;1.63;;
35530;SDS011;21637;53.352;-6.356;2023-03-19T12:43:01;5.63;;;1.80;;
35530;SDS011;21637;53.352;-6.356;2023-03-19T12:45:38;8.00;;;1.65;;
35530;SDS011;21637;53.352;-6.356;2023-03-19T12:48:16;5.97;;;1.98;;
35530;SDS011;21637;53.352;-6.356;2023-03-19T12:50:51;6.32;;;1.60;;
35530;SDS011;21637;53.352;-6.356;2023-03-19T12:56:01;6.03;;;1.60;;
35530;SDS011;21637;53.352;-6.356;2023-03-19T12:58:53;7.07;;;1.55;;
35530;SDS011;21637;53.352;-6.356;2023-03-19T13:01:26;9.32;;;2.42;;
35530;SDS011;21637;53.352;-6.356;2023-03-19T13:09:37;6.75;;;1.60;;
35530;SDS011;21637;53.352;-6.356;2023-03-19T13:12:15;9.95;;;1.70;;
35530;SDS011;21637;53.352;-6.356;2023-03-19T13:17:48;7.68;;;1.75;;
35530;SDS011;21637;53.352;-6.356;2023-03-19T13:23:11;7.75;;;2.00;;
35530;SDS011;21637;53.352;-6.356;2023-03-19T13:25:42;13.75;;;2.60;;
35530;SDS011;21637;53.352;-6.356;2023-03-19T13:28:17;6.45;;;2.03;;
35530;SDS011;21637;53.352;-6.356;2023-03-19T13:31:05;8.77;;;2.17;;
35530;SDS011;21637;53.352;-6.356;2023-03-19T13:33:47;9.73;;;1.88;;
35530;SDS011;21637;53.352;-6.356;2023-03-19T13:36:18;7.22;;;2.42;;
35530;SDS011;21637;53.352;-6.356;2023-03-19T13:38:48;9.13;;;2.17;;
35530;SDS011;21637;53.352;-6.356;2023-03-19T13:46:45;13.30;;;2.63;;
35530;SDS011;21637;53.352;-6.356;2023-03-19T13:51:49;11.35;;;2.05;;
35530;SDS011;21637;53.352;-6.356;2023-03-19T13:54:18;7.78;;;2.28;;
35530;SDS011;21637;53.352;-6.356;2023-03-19T13:59:44;10.30;;;1.98;;
35530;SDS011;21637;53.352;-6.356;2023-03-19T14:04:50;9.05;;;2.60;;
35530;SDS011;21637;53.352;-6.356;2023-03-19T14:15:13;10.68;;;2.75;;
35530;SDS011;21637;53.352;-6.356;2023-03-19T14:20:25;14.32;;;2.53;;
35530;SDS011;21637;53.352;-6.356;2023-03-19T14:28:23;9.32;;;2.60;;
35530;SDS011;21637;53.352;-6.356;2023-03-19T14:31:05;7.15;;;1.65;;
35530;SDS011;21637;53.352;-6.356;2023-03-19T14:34:06;5.93;;;1.45;;
35530;SDS011;21637;53.352;-6.356;2023-03-19T14:36:46;15.30;;;2.35;;
35530;SDS011;21637;53.352;-6.356;2023-03-19T14:39:49;10.48;;;2.38;;
35530;SDS011;21637;53.352;-6.356;2023-03-19T14:42:19;6.50;;;1.83;;
35530;SDS011;21637;53.352;-6.356;2023-03-19T14:50:52;11.30;;;2.10;;
35530;SDS011;21637;53.352;-6.356;2023-03-19T14:53:29;11.23;;;2.15;;
35530;SDS011;21637;53.352;-6.356;2023-03-19T14:56:20;8.18;;;2.50;;
35530;SDS011;21637;53.352;-6.356;2023-03-19T14:58:54;9.75;;;2.20;;
35530;SDS011;21637;53.352;-6.356;2023-03-19T15:01:22;13.23;;;2.28;;
35530;SDS011;21637;53.352;-6.356;2023-03-19T15:03:54;14.43;;;2.10;;
35530;SDS011;21637;53.352;-6.356;2023-03-19T15:06:24;11.10;;;2.20;;
35530;SDS011;21637;53.352;-6.356;2023-03-19T15:08:59;10.27;;;2.08;;
35530;SDS011;21637;53.352;-6.356;2023-03-19T15:17:23;9.00;;;2.00;;
35530;SDS011;21637;53.352;-6.356;2023-03-19T15:19:52;9.20;;;2.42;;
35530;SDS011;21637;53.352;-6.356;2023-03-19T15:22:22;8.10;;;2.33;;
35530;SDS011;21637;53.352;-6.356;2023-03-19T15:24:53;11.77;;;2.47;;
35530;SDS011;21637;53.352;-6.356;2023-03-19T15:27:20;9.32;;;3.08;;
35530;SDS011;21637;53.352;-6.356;2023-03-19T15:29:47;9.77;;;2.50;;
35530;SDS011;21637;53.352;-6.356;2023-03-19T15:34:56;11.98;;;3.05;;
35530;SDS011;21637;53.352;-6.356;2023-03-19T15:37:22;8.18;;;2.40;;
35530;SDS011;21637;53.352;-6.356;2023-03-19T15:39:49;11.30;;;2.75;;
35530;SDS011;21637;53.352;-6.356;2023-03-19T15:42:17;14.65;;;2.92;;
35530;SDS011;21637;53.352;-6.356;2023-03-19T15:44:47;9.68;;;2.70;;
35530;SDS011;21637;53.352;-6.356;2023-03-19T15:47:17;16.90;;;3.35;;
35530;SDS011;21637;53.352;-6.356;2023-03-19T15:50:28;11.73;;;2.88;;
35530;SDS011;21637;53.352;-6.356;2023-03-19T15:52:40;9.75;;;2.58;;
35530;SDS011;21637;53.352;-6.356;2023-03-19T15:55:11;10.57;;;2.47;;
35530;SDS011;21637;53.352;-6.356;2023-03-19T15:57:38;14.50;;;2.75;;
35530;SDS011;21637;53.352;-6.356;2023-03-19T16:00:07;7.47;;;3.13;;
35530;SDS011;21637;53.352;-6.356;2023-03-19T16:02:34;11.90;;;3.10;;
35530;SDS011;21637;53.352;-6.356;2023-03-19T16:05:04;13.82;;;2.95;;
35530;SDS011;21637;53.352;-6.356;2023-03-19T16:09:56;13.82;;;3.45;;
35530;SDS011;21637;53.352;-6.356;2023-03-19T16:12:39;12.45;;;3.45;;
35530;SDS011;21637;53.352;-6.356;2023-03-19T16:15:24;12.02;;;4.15;;
35530;SDS011;21637;53.352;-6.356;2023-03-19T16:18:07;9.40;;;3.38;;
35530;SDS011;21637;53.352;-6.356;2023-03-19T16:21:05;10.93;;;3.22;;
35530;SDS011;21637;53.352;-6.356;2023-03-19T16:23:48;8.05;;;3.28;;
35530;SDS011;21637;53.352;-6.356;2023-03-19T16:26:35;7.50;;;2.85;;
35530;SDS011;21637;53.352;-6.356;2023-03-19T16:31:42;10.52;;;3.65;;
35530;SDS011;21637;53.352;-6.356;2023-03-19T16:34:36;12.70;;;3.70;;
35530;SDS011;21637;53.352;-6.356;2023-03-19T16:39:57;16.38;;;5.47;;
35530;SDS011;21637;53.352;-6.356;2023-03-19T16:44:56;7.68;;;4.53;;
35530;SDS011;21637;53.352;-6.356;2023-03-19T16:47:26;6.95;;;3.17;;
35530;SDS011;21637;53.352;-6.356;2023-03-19T16:49:51;11.55;;;3.28;;
35530;SDS011;21637;53.352;-6.356;2023-03-19T16:52:18;10.70;;;3.05;;
35530;SDS011;21637;53.352;-6.356;2023-03-19T16:54:46;9.70;;;2.75;;
35530;SDS011;21637;53.352;-6.356;2023-03-19T16:57:13;10.77;;;3.92;;
35530;SDS011;21637;53.352;-6.356;2023-03-19T16:59:40;10.55;;;3.92;;
35530;SDS011;21637;53.352;-6.356;2023-03-19T17:02:13;7.95;;;4.35;;
35530;SDS011;21637;53.352;-6.356;2023-03-19T17:04:41;9.00;;;4.38;;
35530;SDS011;21637;53.352;-6.356;2023-03-19T17:07:07;11.70;;;5.57;;
35530;SDS011;21637;53.352;-6.356;2023-03-19T17:09:33;9.25;;;4.80;;
35530;SDS011;21637;53.352;-6.356;2023-03-19T17:11:59;14.23;;;5.40;;
35530;SDS011;21637;53.352;-6.356;2023-03-19T17:14:26;12.30;;;4.90;;
35530;SDS011;21637;53.352;-6.356;2023-03-19T17:16:53;9.65;;;4.78;;
35530;SDS011;21637;53.352;-6.356;2023-03-19T17:19:23;10.88;;;4.30;;
35530;SDS011;21637;53.352;-6.356;2023-03-19T17:21:58;11.77;;;3.83;;
35530;SDS011;21637;53.352;-6.356;2023-03-19T17:24:33;8.55;;;3.38;;